sensor_id;sensor_type;location;lat;lon;timestamp;P1;durP1;ratioP1;P2;durP2;ratioP2
61383;SDS011;47254;49.346;8.798;2022-07-23T00:00:16;12.43;;;10.20;;
61383;SDS011;47254;49.346;8.798;2022-07-23T00:02:42;19.27;;;9.85;;
61383;SDS011;47254;49.346;8.798;2022-07-23T00:05:07;22.80;;;11.20;;
61383;SDS011;47254;49.346;8.798;2022-07-23T00:07:35;11.85;;;10.52;;
61383;SDS011;47254;49.346;8.798;2022-07-23T00:10:00;11.88;;;10.02;;
61383;SDS011;47254;49.346;8.798;2022-07-23T00:12:25;17.43;;;10.80;;
61383;SDS011;47254;49.346;8.798;2022-07-23T00:14:53;16.00;;;10.27;;
61383;SDS011;47254;49.346;8.798;2022-07-23T00:17:18;14.80;;;10.45;;
61383;SDS011;47254;49.346;8.798;2022-07-23T00:19:46;15.52;;;10.55;;
61383;SDS011;47254;49.346;8.798;2022-07-23T00:22:11;14.00;;;10.43;;
61383;SDS011;47254;49.346;8.798;2022-07-23T00:24:36;12.50;;;10.70;;
61383;SDS011;47254;49.346;8.798;2022-07-23T00:27:04;15.13;;;10.85;;
61383;SDS011;47254;49.346;8.798;2022-07-23T00:29:32;12.67;;;10.10;;
61383;SDS011;47254;49.346;8.798;2022-07-23T00:31:59;14.55;;;10.18;;
61383;SDS011;47254;49.346;8.798;2022-07-23T00:34:24;17.47;;;10.40;;
61383;SDS011;47254;49.346;8.798;2022-07-23T00:36:50;11.40;;;10.15;;
61383;SDS011;47254;49.346;8.798;2022-07-23T00:39:18;13.70;;;10.45;;
61383;SDS011;47254;49.346;8.798;2022-07-23T00:41:43;13.93;;;9.87;;
61383;SDS011;47254;49.346;8.798;2022-07-23T00:44:19;16.47;;;10.57;;
61383;SDS011;47254;49.346;8.798;2022-07-23T00:46:48;18.13;;;10.02;;
61383;SDS011;47254;49.346;8.798;2022-07-23T00:49:18;15.50;;;11.02;;
61383;SDS011;47254;49.346;8.798;2022-07-23T00:51:43;16.42;;;10.82;;
61383;SDS011;47254;49.346;8.798;2022-07-23T00:54:12;12.18;;;10.88;;
61383;SDS011;47254;49.346;8.798;2022-07-23T00:56:38;14.85;;;11.35;;
61383;SDS011;47254;49.346;8.798;2022-07-23T00:59:06;17.75;;;11.57;;
61383;SDS011;47254;49.346;8.798;2022-07-23T01:01:32;15.00;;;11.48;;
61383;SDS011;47254;49.346;8.798;2022-07-23T01:03:59;14.77;;;10.55;;
61383;SDS011;47254;49.346;8.798;2022-07-23T01:06:25;16.70;;;10.98;;
61383;SDS011;47254;49.346;8.798;2022-07-23T01:08:52;14.77;;;10.23;;
61383;SDS011;47254;49.346;8.798;2022-07-23T01:11:18;19.65;;;10.68;;
61383;SDS011;47254;49.346;8.798;2022-07-23T01:13:44;16.13;;;11.68;;
61383;SDS011;47254;49.346;8.798;2022-07-23T01:16:09;13.43;;;11.67;;
61383;SDS011;47254;49.346;8.798;2022-07-23T01:18:37;13.43;;;10.90;;
61383;SDS011;47254;49.346;8.798;2022-07-23T01:21:02;16.00;;;11.05;;
61383;SDS011;47254;49.346;8.798;2022-07-23T01:23:27;17.07;;;11.90;;
61383;SDS011;47254;49.346;8.798;2022-07-23T01:25:55;15.87;;;11.23;;
61383;SDS011;47254;49.346;8.798;2022-07-23T01:28:23;13.57;;;11.35;;
61383;SDS011;47254;49.346;8.798;2022-07-23T01:30:50;15.88;;;11.57;;
61383;SDS011;47254;49.346;8.798;2022-07-23T01:33:16;17.10;;;12.77;;
61383;SDS011;47254;49.346;8.798;2022-07-23T01:35:43;17.40;;;11.70;;
61383;SDS011;47254;49.346;8.798;2022-07-23T01:38:08;13.73;;;11.45;;
61383;SDS011;47254;49.346;8.798;2022-07-23T01:40:33;13.47;;;10.63;;
61383;SDS011;47254;49.346;8.798;2022-07-23T01:42:58;12.33;;;10.60;;
61383;SDS011;47254;49.346;8.798;2022-07-23T01:45:24;14.90;;;12.53;;
61383;SDS011;47254;49.346;8.798;2022-07-23T01:47:49;14.83;;;11.40;;
61383;SDS011;47254;49.346;8.798;2022-07-23T01:50:14;17.70;;;12.18;;
61383;SDS011;47254;49.346;8.798;2022-07-23T01:52:40;15.73;;;11.55;;
61383;SDS011;47254;49.346;8.798;2022-07-23T01:55:10;14.38;;;11.25;;
61383;SDS011;47254;49.346;8.798;2022-07-23T01:57:37;15.27;;;11.23;;
61383;SDS011;47254;49.346;8.798;2022-07-23T02:00:03;14.10;;;11.18;;
61383;SDS011;47254;49.346;8.798;2022-07-23T02:02:28;13.57;;;11.32;;
61383;SDS011;47254;49.346;8.798;2022-07-23T02:04:53;13.60;;;10.93;;
61383;SDS011;47254;49.346;8.798;2022-07-23T02:07:23;15.80;;;12.30;;
61383;SDS011;47254;49.346;8.798;2022-07-23T02:09:48;15.88;;;11.65;;
61383;SDS011;47254;49.346;8.798;2022-07-23T02:12:18;14.20;;;11.85;;
61383;SDS011;47254;49.346;8.798;2022-07-23T02:14:46;17.98;;;11.32;;
61383;SDS011;47254;49.346;8.798;2022-07-23T02:17:16;14.05;;;10.35;;
61383;SDS011;47254;49.346;8.798;2022-07-23T02:19:41;16.35;;;11.45;;
61383;SDS011;47254;49.346;8.798;2022-07-23T02:22:10;15.70;;;11.73;;
61383;SDS011;47254;49.346;8.798;2022-07-23T02:24:36;15.10;;;11.48;;
61383;SDS011;47254;49.346;8.798;2022-07-23T02:27:03;15.73;;;12.10;;
61383;SDS011;47254;49.346;8.798;2022-07-23T02:29:33;17.27;;;11.60;;
61383;SDS011;47254;49.346;8.798;2022-07-23T02:31:58;12.82;;;11.02;;
61383;SDS011;47254;49.346;8.798;2022-07-23T02:34:26;16.02;;;12.43;;
61383;SDS011;47254;49.346;8.798;2022-07-23T02:36:51;16.67;;;12.43;;
61383;SDS011;47254;49.346;8.798;2022-07-23T02:39:18;18.50;;;12.85;;
61383;SDS011;47254;49.346;8.798;2022-07-23T02:41:44;14.63;;;11.93;;
61383;SDS011;47254;49.346;8.798;2022-07-23T02:44:11;18.60;;;11.73;;
61383;SDS011;47254;49.346;8.798;2022-07-23T02:46:36;13.97;;;12.20;;
61383;SDS011;47254;49.346;8.798;2022-07-23T02:49:02;16.53;;;11.40;;
61383;SDS011;47254;49.346;8.798;2022-07-23T02:51:27;19.27;;;13.25;;
61383;SDS011;47254;49.346;8.798;2022-07-23T02:53:52;13.67;;;12.03;;
61383;SDS011;47254;49.346;8.798;2022-07-23T02:56:17;19.67;;;12.77;;
61383;SDS011;47254;49.346;8.798;2022-07-23T02:58:43;17.00;;;12.77;;
61383;SDS011;47254;49.346;8.798;2022-07-23T03:01:08;16.40;;;11.77;;
61383;SDS011;47254;49.346;8.798;2022-07-23T03:03:33;16.67;;;12.77;;
61383;SDS011;47254;49.346;8.798;2022-07-23T03:05:58;15.77;;;10.90;;
61383;SDS011;47254;49.346;8.798;2022-07-23T03:08:23;18.63;;;12.10;;
61383;SDS011;47254;49.346;8.798;2022-07-23T03:10:49;16.50;;;12.33;;
61383;SDS011;47254;49.346;8.798;2022-07-23T03:13:16;16.83;;;12.05;;
61383;SDS011;47254;49.346;8.798;2022-07-23T03:15:44;18.75;;;12.32;;
61383;SDS011;47254;49.346;8.798;2022-07-23T03:18:11;20.00;;;11.90;;
61383;SDS011;47254;49.346;8.798;2022-07-23T03:20:36;15.68;;;12.00;;
61383;SDS011;47254;49.346;8.798;2022-07-23T03:23:02;16.20;;;11.57;;
61383;SDS011;47254;49.346;8.798;2022-07-23T03:25:27;17.13;;;11.97;;
61383;SDS011;47254;49.346;8.798;2022-07-23T03:27:54;14.75;;;11.90;;
61383;SDS011;47254;49.346;8.798;2022-07-23T03:30:19;12.73;;;11.43;;
61383;SDS011;47254;49.346;8.798;2022-07-23T03:32:47;18.17;;;11.98;;
61383;SDS011;47254;49.346;8.798;2022-07-23T03:35:15;17.65;;;12.10;;
61383;SDS011;47254;49.346;8.798;2022-07-23T03:37:40;20.27;;;11.27;;
61383;SDS011;47254;49.346;8.798;2022-07-23T03:40:05;16.07;;;12.13;;
61383;SDS011;47254;49.346;8.798;2022-07-23T03:42:31;13.57;;;11.65;;
61383;SDS011;47254;49.346;8.798;2022-07-23T03:44:56;19.30;;;11.50;;
61383;SDS011;47254;49.346;8.798;2022-07-23T03:47:24;13.60;;;12.07;;
61383;SDS011;47254;49.346;8.798;2022-07-23T03:49:54;15.23;;;12.07;;
61383;SDS011;47254;49.346;8.798;2022-07-23T03:52:19;14.48;;;12.10;;
61383;SDS011;47254;49.346;8.798;2022-07-23T03:54:44;16.37;;;12.27;;
61383;SDS011;47254;49.346;8.798;2022-07-23T03:57:12;18.48;;;12.57;;
61383;SDS011;47254;49.346;8.798;2022-07-23T03:59:37;16.47;;;12.53;;
61383;SDS011;47254;49.346;8.798;2022-07-23T04:02:02;14.70;;;11.60;;
61383;SDS011;47254;49.346;8.798;2022-07-23T04:04:29;20.85;;;11.98;;
61383;SDS011;47254;49.346;8.798;2022-07-23T04:06:55;17.77;;;11.40;;
61383;SDS011;47254;49.346;8.798;2022-07-23T04:09:22;17.90;;;12.30;;
61383;SDS011;47254;49.346;8.798;2022-07-23T04:11:50;16.10;;;12.00;;
61383;SDS011;47254;49.346;8.798;2022-07-23T04:14:15;15.73;;;12.57;;
61383;SDS011;47254;49.346;8.798;2022-07-23T04:16:43;12.77;;;11.20;;
61383;SDS011;47254;49.346;8.798;2022-07-23T04:19:13;16.93;;;12.30;;
61383;SDS011;47254;49.346;8.798;2022-07-23T04:21:38;21.90;;;11.70;;
61383;SDS011;47254;49.346;8.798;2022-07-23T04:24:03;13.40;;;10.27;;
61383;SDS011;47254;49.346;8.798;2022-07-23T04:26:29;17.55;;;11.32;;
61383;SDS011;47254;49.346;8.798;2022-07-23T04:28:55;16.37;;;11.90;;
61383;SDS011;47254;49.346;8.798;2022-07-23T04:31:20;22.27;;;11.20;;
61383;SDS011;47254;49.346;8.798;2022-07-23T04:33:47;12.93;;;10.93;;
61383;SDS011;47254;49.346;8.798;2022-07-23T04:36:12;20.27;;;12.57;;
61383;SDS011;47254;49.346;8.798;2022-07-23T04:38:37;16.20;;;12.10;;
61383;SDS011;47254;49.346;8.798;2022-07-23T04:41:03;17.92;;;12.82;;
61383;SDS011;47254;49.346;8.798;2022-07-23T04:43:28;24.98;;;12.88;;
61383;SDS011;47254;49.346;8.798;2022-07-23T04:45:53;19.13;;;13.63;;
61383;SDS011;47254;49.346;8.798;2022-07-23T04:48:21;20.02;;;13.32;;
61383;SDS011;47254;49.346;8.798;2022-07-23T04:50:51;23.15;;;14.18;;
61383;SDS011;47254;49.346;8.798;2022-07-23T04:53:16;17.98;;;13.88;;
61383;SDS011;47254;49.346;8.798;2022-07-23T04:55:43;17.75;;;13.45;;
61383;SDS011;47254;49.346;8.798;2022-07-23T04:58:10;19.35;;;13.18;;
61383;SDS011;47254;49.346;8.798;2022-07-23T05:00:36;17.27;;;13.68;;
61383;SDS011;47254;49.346;8.798;2022-07-23T05:03:01;18.48;;;13.52;;
61383;SDS011;47254;49.346;8.798;2022-07-23T05:05:26;17.65;;;13.77;;
61383;SDS011;47254;49.346;8.798;2022-07-23T05:07:51;16.73;;;12.87;;
61383;SDS011;47254;49.346;8.798;2022-07-23T05:10:17;17.07;;;14.40;;
61383;SDS011;47254;49.346;8.798;2022-07-23T05:12:42;22.55;;;14.35;;
61383;SDS011;47254;49.346;8.798;2022-07-23T05:15:07;18.23;;;11.53;;
61383;SDS011;47254;49.346;8.798;2022-07-23T05:17:32;17.15;;;11.55;;
61383;SDS011;47254;49.346;8.798;2022-07-23T05:20:00;12.23;;;10.40;;
61383;SDS011;47254;49.346;8.798;2022-07-23T05:22:25;13.70;;;11.17;;
61383;SDS011;47254;49.346;8.798;2022-07-23T05:24:50;16.70;;;10.33;;
61383;SDS011;47254;49.346;8.798;2022-07-23T05:27:16;17.40;;;11.20;;
61383;SDS011;47254;49.346;8.798;2022-07-23T05:29:41;12.57;;;10.13;;
61383;SDS011;47254;49.346;8.798;2022-07-23T05:32:06;42.17;;;11.23;;
61383;SDS011;47254;49.346;8.798;2022-07-23T05:34:31;12.43;;;9.77;;
61383;SDS011;47254;49.346;8.798;2022-07-23T05:36:56;15.07;;;9.20;;
61383;SDS011;47254;49.346;8.798;2022-07-23T05:39:24;11.80;;;9.27;;
61383;SDS011;47254;49.346;8.798;2022-07-23T05:41:52;14.90;;;9.97;;
61383;SDS011;47254;49.346;8.798;2022-07-23T05:44:19;15.63;;;9.77;;
61383;SDS011;47254;49.346;8.798;2022-07-23T05:46:47;15.60;;;9.98;;
61383;SDS011;47254;49.346;8.798;2022-07-23T05:49:12;20.23;;;11.13;;
61383;SDS011;47254;49.346;8.798;2022-07-23T05:51:37;14.67;;;10.23;;
61383;SDS011;47254;49.346;8.798;2022-07-23T05:54:05;18.83;;;10.40;;
61383;SDS011;47254;49.346;8.798;2022-07-23T05:56:32;12.35;;;10.30;;
61383;SDS011;47254;49.346;8.798;2022-07-23T05:58:58;13.70;;;9.88;;
61383;SDS011;47254;49.346;8.798;2022-07-23T06:01:25;14.32;;;10.23;;
61383;SDS011;47254;49.346;8.798;2022-07-23T06:03:50;17.50;;;10.07;;
61383;SDS011;47254;49.346;8.798;2022-07-23T06:06:16;21.23;;;9.87;;
61383;SDS011;47254;49.346;8.798;2022-07-23T06:08:41;16.33;;;11.23;;
61383;SDS011;47254;49.346;8.798;2022-07-23T06:11:09;11.30;;;9.52;;
61383;SDS011;47254;49.346;8.798;2022-07-23T06:13:34;11.93;;;9.50;;
61383;SDS011;47254;49.346;8.798;2022-07-23T06:15:59;14.83;;;10.27;;
61383;SDS011;47254;49.346;8.798;2022-07-23T06:18:24;19.50;;;9.97;;
61383;SDS011;47254;49.346;8.798;2022-07-23T06:20:50;19.17;;;10.63;;
61383;SDS011;47254;49.346;8.798;2022-07-23T06:23:15;17.30;;;9.82;;
61383;SDS011;47254;49.346;8.798;2022-07-23T06:25:40;13.07;;;10.17;;
61383;SDS011;47254;49.346;8.798;2022-07-23T06:28:05;14.83;;;10.33;;
61383;SDS011;47254;49.346;8.798;2022-07-23T06:30:35;15.88;;;11.15;;
61383;SDS011;47254;49.346;8.798;2022-07-23T06:33:00;14.02;;;9.45;;
61383;SDS011;47254;49.346;8.798;2022-07-23T06:35:28;20.35;;;10.15;;
61383;SDS011;47254;49.346;8.798;2022-07-23T06:37:56;13.90;;;10.40;;
61383;SDS011;47254;49.346;8.798;2022-07-23T06:40:21;24.10;;;10.30;;
61383;SDS011;47254;49.346;8.798;2022-07-23T06:42:48;14.50;;;10.25;;
61383;SDS011;47254;49.346;8.798;2022-07-23T06:45:16;15.97;;;10.00;;
61383;SDS011;47254;49.346;8.798;2022-07-23T06:47:41;13.35;;;10.45;;
61383;SDS011;47254;49.346;8.798;2022-07-23T06:50:07;23.75;;;10.95;;
61383;SDS011;47254;49.346;8.798;2022-07-23T06:52:32;13.25;;;9.90;;
61383;SDS011;47254;49.346;8.798;2022-07-23T06:54:57;15.23;;;11.03;;
61383;SDS011;47254;49.346;8.798;2022-07-23T06:57:22;17.60;;;10.80;;
61383;SDS011;47254;49.346;8.798;2022-07-23T06:59:50;14.95;;;10.60;;
61383;SDS011;47254;49.346;8.798;2022-07-23T07:02:15;13.70;;;9.63;;
61383;SDS011;47254;49.346;8.798;2022-07-23T07:04:41;15.50;;;10.73;;
61383;SDS011;47254;49.346;8.798;2022-07-23T07:07:06;14.37;;;10.53;;
61383;SDS011;47254;49.346;8.798;2022-07-23T07:09:33;18.45;;;11.43;;
61383;SDS011;47254;49.346;8.798;2022-07-23T07:11:59;15.70;;;11.20;;
61383;SDS011;47254;49.346;8.798;2022-07-23T07:14:24;14.77;;;11.30;;
61383;SDS011;47254;49.346;8.798;2022-07-23T07:16:51;16.33;;;11.95;;
61383;SDS011;47254;49.346;8.798;2022-07-23T07:19:16;14.97;;;11.47;;
61383;SDS011;47254;49.346;8.798;2022-07-23T07:21:42;14.20;;;11.33;;
61383;SDS011;47254;49.346;8.798;2022-07-23T07:24:07;13.83;;;10.90;;
61383;SDS011;47254;49.346;8.798;2022-07-23T07:26:32;12.52;;;10.68;;
61383;SDS011;47254;49.346;8.798;2022-07-23T07:28:59;12.82;;;10.70;;
61383;SDS011;47254;49.346;8.798;2022-07-23T07:31:25;19.00;;;10.53;;
61383;SDS011;47254;49.346;8.798;2022-07-23T07:33:50;13.13;;;10.52;;
61383;SDS011;47254;49.346;8.798;2022-07-23T07:36:15;13.73;;;11.00;;
61383;SDS011;47254;49.346;8.798;2022-07-23T07:38:43;15.93;;;10.80;;
61383;SDS011;47254;49.346;8.798;2022-07-23T07:41:08;16.50;;;11.13;;
61383;SDS011;47254;49.346;8.798;2022-07-23T07:43:35;14.07;;;10.00;;
61383;SDS011;47254;49.346;8.798;2022-07-23T07:46:00;18.50;;;12.48;;
61383;SDS011;47254;49.346;8.798;2022-07-23T07:48:28;16.00;;;9.68;;
61383;SDS011;47254;49.346;8.798;2022-07-23T07:50:55;14.50;;;11.55;;
61383;SDS011;47254;49.346;8.798;2022-07-23T07:53:22;16.48;;;11.10;;
61383;SDS011;47254;49.346;8.798;2022-07-23T07:55:48;24.07;;;11.40;;
61383;SDS011;47254;49.346;8.798;2022-07-23T07:58:15;14.33;;;10.33;;
61383;SDS011;47254;49.346;8.798;2022-07-23T08:00:40;16.02;;;9.98;;
61383;SDS011;47254;49.346;8.798;2022-07-23T08:03:06;12.20;;;10.00;;
61383;SDS011;47254;49.346;8.798;2022-07-23T08:05:31;15.07;;;9.60;;
61383;SDS011;47254;49.346;8.798;2022-07-23T08:07:57;13.48;;;10.85;;
61383;SDS011;47254;49.346;8.798;2022-07-23T08:10:25;19.30;;;12.65;;
61383;SDS011;47254;49.346;8.798;2022-07-23T08:12:51;14.32;;;10.70;;
61383;SDS011;47254;49.346;8.798;2022-07-23T08:15:18;14.50;;;10.30;;
61383;SDS011;47254;49.346;8.798;2022-07-23T08:17:44;13.18;;;9.57;;
61383;SDS011;47254;49.346;8.798;2022-07-23T08:20:10;14.20;;;10.35;;
61383;SDS011;47254;49.346;8.798;2022-07-23T08:25:08;13.55;;;9.65;;
61383;SDS011;47254;49.346;8.798;2022-07-23T08:27:33;18.80;;;11.05;;
61383;SDS011;47254;49.346;8.798;2022-07-23T08:29:58;16.77;;;9.90;;
61383;SDS011;47254;49.346;8.798;2022-07-23T08:32:23;11.33;;;8.87;;
61383;SDS011;47254;49.346;8.798;2022-07-23T08:34:48;15.20;;;9.23;;
61383;SDS011;47254;49.346;8.798;2022-07-23T08:37:16;14.38;;;9.60;;
61383;SDS011;47254;49.346;8.798;2022-07-23T08:39:43;15.52;;;9.90;;
61383;SDS011;47254;49.346;8.798;2022-07-23T08:42:09;11.47;;;9.07;;
61383;SDS011;47254;49.346;8.798;2022-07-23T08:44:34;14.80;;;9.33;;
61383;SDS011;47254;49.346;8.798;2022-07-23T08:47:00;10.68;;;9.00;;
61383;SDS011;47254;49.346;8.798;2022-07-23T08:49:25;13.93;;;9.57;;
61383;SDS011;47254;49.346;8.798;2022-07-23T08:51:51;13.00;;;8.15;;
61383;SDS011;47254;49.346;8.798;2022-07-23T08:54:18;16.00;;;9.63;;
61383;SDS011;47254;49.346;8.798;2022-07-23T08:56:46;12.10;;;9.00;;
61383;SDS011;47254;49.346;8.798;2022-07-23T08:59:13;10.90;;;8.37;;
61383;SDS011;47254;49.346;8.798;2022-07-23T09:01:39;12.40;;;9.45;;
61383;SDS011;47254;49.346;8.798;2022-07-23T09:04:04;10.88;;;8.88;;
61383;SDS011;47254;49.346;8.798;2022-07-23T09:06:29;10.47;;;9.00;;
61383;SDS011;47254;49.346;8.798;2022-07-23T09:08:54;13.60;;;8.90;;
61383;SDS011;47254;49.346;8.798;2022-07-23T09:11:20;15.35;;;8.48;;
61383;SDS011;47254;49.346;8.798;2022-07-23T09:16:15;15.35;;;10.65;;
61383;SDS011;47254;49.346;8.798;2022-07-23T09:26:30;11.02;;;9.25;;
61383;SDS011;47254;49.346;8.798;2022-07-23T09:28:57;10.30;;;8.27;;
61383;SDS011;47254;49.346;8.798;2022-07-23T09:31:22;11.43;;;8.98;;
61383;SDS011;47254;49.346;8.798;2022-07-23T09:33:48;14.10;;;8.95;;
61383;SDS011;47254;49.346;8.798;2022-07-23T09:36:13;13.87;;;9.77;;
61383;SDS011;47254;49.346;8.798;2022-07-23T09:38:56;14.50;;;9.37;;
61383;SDS011;47254;49.346;8.798;2022-07-23T09:41:22;11.30;;;9.18;;
61383;SDS011;47254;49.346;8.798;2022-07-23T09:43:54;15.35;;;10.02;;
61383;SDS011;47254;49.346;8.798;2022-07-23T09:46:23;13.52;;;9.25;;
61383;SDS011;47254;49.346;8.798;2022-07-23T09:48:52;14.05;;;10.43;;
61383;SDS011;47254;49.346;8.798;2022-07-23T09:51:18;11.98;;;9.88;;
61383;SDS011;47254;49.346;8.798;2022-07-23T09:56:28;20.25;;;9.90;;
61383;SDS011;47254;49.346;8.798;2022-07-23T09:58:54;12.23;;;10.05;;
61383;SDS011;47254;49.346;8.798;2022-07-23T10:01:51;12.70;;;10.13;;
61383;SDS011;47254;49.346;8.798;2022-07-23T10:04:19;16.02;;;11.05;;
61383;SDS011;47254;49.346;8.798;2022-07-23T10:06:45;13.55;;;9.93;;
61383;SDS011;47254;49.346;8.798;2022-07-23T10:09:12;14.02;;;9.88;;
61383;SDS011;47254;49.346;8.798;2022-07-23T10:11:40;14.57;;;11.45;;
61383;SDS011;47254;49.346;8.798;2022-07-23T10:14:08;13.63;;;9.82;;
61383;SDS011;47254;49.346;8.798;2022-07-23T10:16:35;12.35;;;9.73;;
61383;SDS011;47254;49.346;8.798;2022-07-23T10:19:04;14.00;;;10.30;;
61383;SDS011;47254;49.346;8.798;2022-07-23T10:24:01;12.90;;;8.43;;
61383;SDS011;47254;49.346;8.798;2022-07-23T10:29:02;14.50;;;10.05;;
61383;SDS011;47254;49.346;8.798;2022-07-23T10:31:35;12.50;;;8.90;;
61383;SDS011;47254;49.346;8.798;2022-07-23T10:39:08;10.77;;;8.65;;
61383;SDS011;47254;49.346;8.798;2022-07-23T10:41:39;15.10;;;8.57;;
61383;SDS011;47254;49.346;8.798;2022-07-23T10:44:13;10.13;;;7.07;;
61383;SDS011;47254;49.346;8.798;2022-07-23T10:49:29;14.10;;;8.30;;
61383;SDS011;47254;49.346;8.798;2022-07-23T10:54:38;13.52;;;8.57;;
61383;SDS011;47254;49.346;8.798;2022-07-23T10:57:04;14.43;;;9.32;;
61383;SDS011;47254;49.346;8.798;2022-07-23T10:59:31;10.68;;;9.07;;
61383;SDS011;47254;49.346;8.798;2022-07-23T11:04:49;9.57;;;8.27;;
61383;SDS011;47254;49.346;8.798;2022-07-23T11:07:15;10.32;;;8.38;;
61383;SDS011;47254;49.346;8.798;2022-07-23T11:09:43;11.38;;;8.20;;
61383;SDS011;47254;49.346;8.798;2022-07-23T11:17:24;10.50;;;8.20;;
61383;SDS011;47254;49.346;8.798;2022-07-23T11:25:07;11.90;;;8.57;;
61383;SDS011;47254;49.346;8.798;2022-07-23T11:27:39;14.73;;;8.68;;
61383;SDS011;47254;49.346;8.798;2022-07-23T11:30:05;10.52;;;8.30;;
61383;SDS011;47254;49.346;8.798;2022-07-23T11:32:33;14.93;;;8.13;;
61383;SDS011;47254;49.346;8.798;2022-07-23T11:34:59;10.85;;;8.27;;
61383;SDS011;47254;49.346;8.798;2022-07-23T11:37:38;11.05;;;7.88;;
61383;SDS011;47254;49.346;8.798;2022-07-23T11:40:10;9.90;;;8.02;;
61383;SDS011;47254;49.346;8.798;2022-07-23T11:42:39;9.98;;;7.82;;
61383;SDS011;47254;49.346;8.798;2022-07-23T11:45:15;10.48;;;8.15;;
61383;SDS011;47254;49.346;8.798;2022-07-23T11:47:45;11.18;;;8.15;;
61383;SDS011;47254;49.346;8.798;2022-07-23T11:50:10;12.35;;;7.60;;
61383;SDS011;47254;49.346;8.798;2022-07-23T11:52:36;10.10;;;8.32;;
61383;SDS011;47254;49.346;8.798;2022-07-23T11:55:03;12.32;;;8.07;;
61383;SDS011;47254;49.346;8.798;2022-07-23T11:57:33;9.32;;;7.35;;
61383;SDS011;47254;49.346;8.798;2022-07-23T12:00:05;9.98;;;8.77;;
61383;SDS011;47254;49.346;8.798;2022-07-23T12:02:33;13.75;;;8.23;;
61383;SDS011;47254;49.346;8.798;2022-07-23T12:04:59;9.43;;;7.22;;
61383;SDS011;47254;49.346;8.798;2022-07-23T12:10:09;13.82;;;6.60;;
61383;SDS011;47254;49.346;8.798;2022-07-23T12:12:38;9.32;;;7.57;;
61383;SDS011;47254;49.346;8.798;2022-07-23T12:15:03;7.40;;;6.55;;
61383;SDS011;47254;49.346;8.798;2022-07-23T12:17:30;11.68;;;7.53;;
61383;SDS011;47254;49.346;8.798;2022-07-23T12:19:59;11.07;;;6.55;;
61383;SDS011;47254;49.346;8.798;2022-07-23T12:22:26;8.52;;;6.88;;
61383;SDS011;47254;49.346;8.798;2022-07-23T12:24:52;12.52;;;7.57;;
61383;SDS011;47254;49.346;8.798;2022-07-23T12:27:19;13.02;;;6.47;;
61383;SDS011;47254;49.346;8.798;2022-07-23T12:29:45;7.18;;;6.45;;
61383;SDS011;47254;49.346;8.798;2022-07-23T12:32:20;12.00;;;7.30;;
61383;SDS011;47254;49.346;8.798;2022-07-23T12:34:47;7.55;;;6.72;;
61383;SDS011;47254;49.346;8.798;2022-07-23T12:37:34;11.50;;;7.55;;
61383;SDS011;47254;49.346;8.798;2022-07-23T12:39:58;9.75;;;7.13;;
61383;SDS011;47254;49.346;8.798;2022-07-23T12:42:42;8.18;;;7.38;;
61383;SDS011;47254;49.346;8.798;2022-07-23T12:45:09;11.15;;;8.30;;
61383;SDS011;47254;49.346;8.798;2022-07-23T12:47:50;12.80;;;9.02;;
61383;SDS011;47254;49.346;8.798;2022-07-23T12:50:34;11.15;;;8.00;;
61383;SDS011;47254;49.346;8.798;2022-07-23T12:53:14;13.68;;;7.57;;
61383;SDS011;47254;49.346;8.798;2022-07-23T12:55:39;10.75;;;8.57;;
61383;SDS011;47254;49.346;8.798;2022-07-23T12:58:09;12.60;;;8.30;;
61383;SDS011;47254;49.346;8.798;2022-07-23T13:00:52;12.13;;;9.10;;
61383;SDS011;47254;49.346;8.798;2022-07-23T13:03:29;9.52;;;8.15;;
61383;SDS011;47254;49.346;8.798;2022-07-23T13:05:55;14.65;;;9.13;;
61383;SDS011;47254;49.346;8.798;2022-07-23T13:08:21;10.13;;;8.48;;
61383;SDS011;47254;49.346;8.798;2022-07-23T13:10:46;14.18;;;8.57;;
61383;SDS011;47254;49.346;8.798;2022-07-23T13:13:16;16.33;;;9.30;;
61383;SDS011;47254;49.346;8.798;2022-07-23T13:15:42;11.80;;;8.63;;
61383;SDS011;47254;49.346;8.798;2022-07-23T13:18:07;16.15;;;9.40;;
61383;SDS011;47254;49.346;8.798;2022-07-23T13:20:32;14.33;;;9.80;;
61383;SDS011;47254;49.346;8.798;2022-07-23T13:23:00;14.35;;;8.70;;
61383;SDS011;47254;49.346;8.798;2022-07-23T13:25:27;13.35;;;9.00;;
61383;SDS011;47254;49.346;8.798;2022-07-23T13:27:55;14.20;;;8.30;;
61383;SDS011;47254;49.346;8.798;2022-07-23T13:30:22;12.82;;;9.70;;
61383;SDS011;47254;49.346;8.798;2022-07-23T13:32:48;12.63;;;10.63;;
61383;SDS011;47254;49.346;8.798;2022-07-23T13:35:13;10.77;;;8.35;;
61383;SDS011;47254;49.346;8.798;2022-07-23T13:37:38;15.00;;;8.63;;
61383;SDS011;47254;49.346;8.798;2022-07-23T13:40:04;11.48;;;8.75;;
61383;SDS011;47254;49.346;8.798;2022-07-23T13:42:29;13.65;;;8.52;;
61383;SDS011;47254;49.346;8.798;2022-07-23T13:44:55;9.53;;;7.90;;
61383;SDS011;47254;49.346;8.798;2022-07-23T13:47:20;12.43;;;8.80;;
61383;SDS011;47254;49.346;8.798;2022-07-23T13:49:45;14.67;;;7.50;;
61383;SDS011;47254;49.346;8.798;2022-07-23T13:52:11;11.70;;;8.97;;
61383;SDS011;47254;49.346;8.798;2022-07-23T13:54:41;12.90;;;8.88;;
61383;SDS011;47254;49.346;8.798;2022-07-23T13:57:09;9.07;;;8.15;;
61383;SDS011;47254;49.346;8.798;2022-07-23T13:59:36;9.17;;;7.87;;
61383;SDS011;47254;49.346;8.798;2022-07-23T14:02:02;17.48;;;8.25;;
61383;SDS011;47254;49.346;8.798;2022-07-23T14:04:27;10.65;;;9.52;;
61383;SDS011;47254;49.346;8.798;2022-07-23T14:06:55;13.60;;;8.87;;
61383;SDS011;47254;49.346;8.798;2022-07-23T14:09:23;15.90;;;9.30;;
61383;SDS011;47254;49.346;8.798;2022-07-23T14:11:48;11.55;;;8.30;;
61383;SDS011;47254;49.346;8.798;2022-07-23T14:14:15;13.15;;;8.18;;
61383;SDS011;47254;49.346;8.798;2022-07-23T14:16:41;10.43;;;8.10;;
61383;SDS011;47254;49.346;8.798;2022-07-23T14:19:06;9.10;;;8.07;;
61383;SDS011;47254;49.346;8.798;2022-07-23T14:21:31;11.27;;;8.33;;
61383;SDS011;47254;49.346;8.798;2022-07-23T14:23:58;11.18;;;7.55;;
61383;SDS011;47254;49.346;8.798;2022-07-23T14:26:26;11.85;;;7.72;;
61383;SDS011;47254;49.346;8.798;2022-07-23T14:28:52;9.52;;;7.85;;
61383;SDS011;47254;49.346;8.798;2022-07-23T14:31:19;10.85;;;8.43;;
61383;SDS011;47254;49.346;8.798;2022-07-23T14:33:44;8.67;;;7.60;;
61383;SDS011;47254;49.346;8.798;2022-07-23T14:36:12;12.47;;;8.70;;
61383;SDS011;47254;49.346;8.798;2022-07-23T14:38:37;12.30;;;8.27;;
61383;SDS011;47254;49.346;8.798;2022-07-23T14:41:02;17.53;;;8.70;;
61383;SDS011;47254;49.346;8.798;2022-07-23T14:43:31;10.10;;;8.38;;
61383;SDS011;47254;49.346;8.798;2022-07-23T14:45:56;13.43;;;7.75;;
61383;SDS011;47254;49.346;8.798;2022-07-23T14:48:21;10.97;;;8.73;;
61383;SDS011;47254;49.346;8.798;2022-07-23T14:50:47;13.17;;;9.33;;
61383;SDS011;47254;49.346;8.798;2022-07-23T14:53:12;13.43;;;9.43;;
61383;SDS011;47254;49.346;8.798;2022-07-23T14:55:39;9.23;;;7.43;;
61383;SDS011;47254;49.346;8.798;2022-07-23T14:58:04;9.93;;;8.30;;
61383;SDS011;47254;49.346;8.798;2022-07-23T15:00:30;9.57;;;8.43;;
61383;SDS011;47254;49.346;8.798;2022-07-23T15:02:55;12.43;;;8.00;;
61383;SDS011;47254;49.346;8.798;2022-07-23T15:05:20;9.70;;;8.70;;
61383;SDS011;47254;49.346;8.798;2022-07-23T15:07:48;18.02;;;8.75;;
61383;SDS011;47254;49.346;8.798;2022-07-23T15:10:14;14.23;;;9.10;;
61383;SDS011;47254;49.346;8.798;2022-07-23T15:12:41;13.88;;;9.05;;